sensor_id;sensor_type;location;lat;lon;timestamp;pressure;altitude;pressure_sealevel;temperature;humidity
77725;BME280;66892;53.236;6.550;2023-04-06T00:01:41;102038.28;;;2.97;70.90
77725;BME280;66892;53.236;6.550;2023-04-06T00:04:07;102038.00;;;2.91;71.24
77725;BME280;66892;53.236;6.550;2023-04-06T00:06:35;102040.66;;;2.93;71.52
77725;BME280;66892;53.236;6.550;2023-04-06T00:09:01;102032.63;;;2.88;71.48
77725;BME280;66892;53.236;6.550;2023-04-06T00:11:27;102033.38;;;2.86;71.75
77725;BME280;66892;53.236;6.550;2023-04-06T00:13:53;102023.47;;;2.79;72.30
77725;BME280;66892;53.236;6.550;2023-04-06T00:16:19;102031.03;;;2.73;72.89
77725;BME280;66892;53.236;6.550;2023-04-06T00:18:46;102026.00;;;2.77;72.46
77725;BME280;66892;53.236;6.550;2023-04-06T00:21:12;102025.94;;;2.76;72.70
77725;BME280;66892;53.236;6.550;2023-04-06T00:23:40;102020.56;;;2.73;73.28
77725;BME280;66892;53.236;6.550;2023-04-06T00:26:06;102025.56;;;2.86;73.69
77725;BME280;66892;53.236;6.550;2023-04-06T00:28:32;102017.25;;;2.77;72.42
77725;BME280;66892;53.236;6.550;2023-04-06T00:30:58;102018.31;;;2.80;73.24
77725;BME280;66892;53.236;6.550;2023-04-06T00:33:24;102015.50;;;2.76;74.02
77725;BME280;66892;53.236;6.550;2023-04-06T00:35:51;102008.25;;;2.70;74.11
77725;BME280;66892;53.236;6.550;2023-04-06T00:38:17;102011.84;;;2.72;73.98
77725;BME280;66892;53.236;6.550;2023-04-06T00:40:45;102005.63;;;2.70;73.96
77725;BME280;66892;53.236;6.550;2023-04-06T00:43:11;101998.69;;;2.71;74.66
77725;BME280;66892;53.236;6.550;2023-04-06T00:45:38;101997.06;;;2.73;73.63
77725;BME280;66892;53.236;6.550;2023-04-06T00:48:05;101997.13;;;2.74;73.38
77725;BME280;66892;53.236;6.550;2023-04-06T00:50:31;101993.28;;;2.66;73.61
77725;BME280;66892;53.236;6.550;2023-04-06T00:52:58;101984.59;;;2.67;73.84
77725;BME280;66892;53.236;6.550;2023-04-06T00:55:24;101988.06;;;2.66;73.50
77725;BME280;66892;53.236;6.550;2023-04-06T00:57:51;101989.63;;;2.62;73.44
77725;BME280;66892;53.236;6.550;2023-04-06T01:00:18;101981.56;;;2.58;73.42
77725;BME280;66892;53.236;6.550;2023-04-06T01:02:44;101980.28;;;2.67;73.28
77725;BME280;66892;53.236;6.550;2023-04-06T01:05:11;101973.13;;;2.63;73.58
77725;BME280;66892;53.236;6.550;2023-04-06T01:07:37;101973.25;;;2.66;73.79
77725;BME280;66892;53.236;6.550;2023-04-06T01:10:04;101970.06;;;2.72;72.46
77725;BME280;66892;53.236;6.550;2023-04-06T01:12:30;101966.03;;;2.61;73.12
77725;BME280;66892;53.236;6.550;2023-04-06T01:14:57;101955.59;;;2.61;72.65
77725;BME280;66892;53.236;6.550;2023-04-06T01:17:23;101961.84;;;2.64;73.15
77725;BME280;66892;53.236;6.550;2023-04-06T01:19:50;101964.34;;;2.61;72.84
77725;BME280;66892;53.236;6.550;2023-04-06T01:22:18;101960.00;;;2.62;73.05
77725;BME280;66892;53.236;6.550;2023-04-06T01:24:44;101957.13;;;2.56;73.55
77725;BME280;66892;53.236;6.550;2023-04-06T01:27:10;101952.31;;;2.65;72.74
77725;BME280;66892;53.236;6.550;2023-04-06T01:29:37;101946.13;;;2.63;72.35
77725;BME280;66892;53.236;6.550;2023-04-06T01:32:03;101943.91;;;2.53;72.58
77725;BME280;66892;53.236;6.550;2023-04-06T01:34:29;101944.06;;;2.56;73.12
77725;BME280;66892;53.236;6.550;2023-04-06T01:36:55;101945.50;;;2.49;73.12
77725;BME280;66892;53.236;6.550;2023-04-06T01:39:22;101940.94;;;2.45;73.32
77725;BME280;66892;53.236;6.550;2023-04-06T01:41:48;101932.31;;;2.46;73.21
77725;BME280;66892;53.236;6.550;2023-04-06T01:44:16;101939.91;;;2.42;73.36
77725;BME280;66892;53.236;6.550;2023-04-06T01:46:42;101934.41;;;2.36;73.53
77725;BME280;66892;53.236;6.550;2023-04-06T01:49:08;101932.91;;;2.41;73.24
77725;BME280;66892;53.236;6.550;2023-04-06T01:51:34;101931.94;;;2.39;74.02
77725;BME280;66892;53.236;6.550;2023-04-06T01:54:01;101935.81;;;2.29;73.74
77725;BME280;66892;53.236;6.550;2023-04-06T01:56:28;101929.69;;;2.29;73.93
77725;BME280;66892;53.236;6.550;2023-04-06T01:58:54;101931.00;;;2.56;71.91
77725;BME280;66892;53.236;6.550;2023-04-06T02:01:21;101920.06;;;2.45;72.40
77725;BME280;66892;53.236;6.550;2023-04-06T02:03:47;101924.31;;;2.43;73.37
77725;BME280;66892;53.236;6.550;2023-04-06T02:06:13;101924.91;;;2.38;72.62
77725;BME280;66892;53.236;6.550;2023-04-06T02:08:39;101919.34;;;2.30;72.60
77725;BME280;66892;53.236;6.550;2023-04-06T02:11:05;101917.94;;;2.37;72.54
77725;BME280;66892;53.236;6.550;2023-04-06T02:13:33;101920.41;;;2.34;73.67
77725;BME280;66892;53.236;6.550;2023-04-06T02:15:59;101909.25;;;2.38;73.12
77725;BME280;66892;53.236;6.550;2023-04-06T02:18:25;101914.31;;;2.35;72.99
77725;BME280;66892;53.236;6.550;2023-04-06T02:20:51;101909.09;;;2.35;73.44
77725;BME280;66892;53.236;6.550;2023-04-06T02:23:17;101903.75;;;2.32;72.75
77725;BME280;66892;53.236;6.550;2023-04-06T02:25:43;101907.19;;;2.31;73.60
77725;BME280;66892;53.236;6.550;2023-04-06T02:28:09;101896.47;;;2.25;74.04
77725;BME280;66892;53.236;6.550;2023-04-06T02:30:37;101894.28;;;2.34;73.02
77725;BME280;66892;53.236;6.550;2023-04-06T02:33:03;101902.03;;;2.32;73.23
77725;BME280;66892;53.236;6.550;2023-04-06T02:35:30;101895.78;;;2.29;72.86
77725;BME280;66892;53.236;6.550;2023-04-06T02:37:56;101904.38;;;2.26;72.97
77725;BME280;66892;53.236;6.550;2023-04-06T02:40:22;101898.88;;;2.20;73.01
77725;BME280;66892;53.236;6.550;2023-04-06T02:42:48;101889.19;;;2.18;72.99
77725;BME280;66892;53.236;6.550;2023-04-06T02:45:15;101896.50;;;2.07;72.98
77725;BME280;66892;53.236;6.550;2023-04-06T02:47:42;101889.84;;;2.13;72.74
77725;BME280;66892;53.236;6.550;2023-04-06T02:50:09;101895.88;;;2.12;73.03
77725;BME280;66892;53.236;6.550;2023-04-06T02:52:35;101880.97;;;2.10;72.21
77725;BME280;66892;53.236;6.550;2023-04-06T02:55:02;101891.41;;;2.10;72.32
77725;BME280;66892;53.236;6.550;2023-04-06T02:57:28;101878.22;;;2.07;72.38
77725;BME280;66892;53.236;6.550;2023-04-06T02:59:54;101884.88;;;2.00;72.55
77725;BME280;66892;53.236;6.550;2023-04-06T03:02:20;101882.59;;;1.89;73.59
77725;BME280;66892;53.236;6.550;2023-04-06T03:04:47;101882.63;;;1.90;73.56
77725;BME280;66892;53.236;6.550;2023-04-06T03:07:13;101876.53;;;1.90;74.25
77725;BME280;66892;53.236;6.550;2023-04-06T03:09:39;101873.88;;;1.88;73.43
77725;BME280;66892;53.236;6.550;2023-04-06T03:12:06;101874.38;;;1.81;74.37
77725;BME280;66892;53.236;6.550;2023-04-06T03:14:32;101875.94;;;1.78;73.87
77725;BME280;66892;53.236;6.550;2023-04-06T03:16:58;101874.56;;;1.67;74.18
77725;BME280;66892;53.236;6.550;2023-04-06T03:19:24;101873.50;;;1.63;74.28
77725;BME280;66892;53.236;6.550;2023-04-06T03:21:51;101869.69;;;1.56;74.45
77725;BME280;66892;53.236;6.550;2023-04-06T03:24:17;101878.03;;;1.49;75.33
77725;BME280;66892;53.236;6.550;2023-04-06T03:26:43;101872.56;;;1.45;75.26
77725;BME280;66892;53.236;6.550;2023-04-06T03:29:10;101871.47;;;1.40;75.29
77725;BME280;66892;53.236;6.550;2023-04-06T03:31:36;101864.25;;;1.34;75.79
77725;BME280;66892;53.236;6.550;2023-04-06T03:34:02;101864.91;;;1.30;75.96
77725;BME280;66892;53.236;6.550;2023-04-06T03:36:28;101865.34;;;1.22;76.00
77725;BME280;66892;53.236;6.550;2023-04-06T03:38:55;101865.25;;;1.20;76.76
77725;BME280;66892;53.236;6.550;2023-04-06T03:41:21;101868.59;;;1.18;76.20
77725;BME280;66892;53.236;6.550;2023-04-06T03:43:47;101867.72;;;1.17;76.61
77725;BME280;66892;53.236;6.550;2023-04-06T03:46:13;101862.41;;;1.16;75.91
77725;BME280;66892;53.236;6.550;2023-04-06T03:48:39;101853.38;;;1.25;75.59
77725;BME280;66892;53.236;6.550;2023-04-06T03:51:05;101862.44;;;1.33;74.89
77725;BME280;66892;53.236;6.550;2023-04-06T03:53:31;101859.69;;;1.30;75.36
77725;BME280;66892;53.236;6.550;2023-04-06T03:55:59;101862.84;;;1.41;74.87
77725;BME280;66892;53.236;6.550;2023-04-06T03:58:25;101854.41;;;1.46;73.96
77725;BME280;66892;53.236;6.550;2023-04-06T04:00:51;101854.88;;;1.55;73.36
77725;BME280;66892;53.236;6.550;2023-04-06T04:03:17;101852.88;;;1.50;74.21
77725;BME280;66892;53.236;6.550;2023-04-06T04:05:43;101850.09;;;1.47;74.29
77725;BME280;66892;53.236;6.550;2023-04-06T04:08:09;101852.22;;;1.54;73.21
77725;BME280;66892;53.236;6.550;2023-04-06T04:10:35;101855.31;;;1.47;74.63
77725;BME280;66892;53.236;6.550;2023-04-06T04:13:02;101860.00;;;1.36;74.65
77725;BME280;66892;53.236;6.550;2023-04-06T04:15:28;101859.94;;;1.35;74.57
77725;BME280;66892;53.236;6.550;2023-04-06T04:17:54;101859.19;;;1.37;74.76
77725;BME280;66892;53.236;6.550;2023-04-06T04:20:20;101863.25;;;1.32;73.92
77725;BME280;66892;53.236;6.550;2023-04-06T04:22:47;101854.47;;;1.30;73.48
77725;BME280;66892;53.236;6.550;2023-04-06T04:25:13;101854.38;;;1.29;74.54
77725;BME280;66892;53.236;6.550;2023-04-06T04:27:39;101854.53;;;1.32;74.10
77725;BME280;66892;53.236;6.550;2023-04-06T04:30:07;101850.31;;;1.34;72.65
77725;BME280;66892;53.236;6.550;2023-04-06T04:32:33;101854.53;;;1.32;73.83
77725;BME280;66892;53.236;6.550;2023-04-06T04:35:00;101848.97;;;1.24;74.07
77725;BME280;66892;53.236;6.550;2023-04-06T04:37:26;101842.84;;;1.24;74.53
77725;BME280;66892;53.236;6.550;2023-04-06T04:39:52;101850.13;;;1.13;75.27
77725;BME280;66892;53.236;6.550;2023-04-06T04:42:18;101846.31;;;1.06;75.76
77725;BME280;66892;53.236;6.550;2023-04-06T04:44:44;101849.66;;;1.04;75.24
77725;BME280;66892;53.236;6.550;2023-04-06T04:47:11;101848.28;;;1.11;74.02
77725;BME280;66892;53.236;6.550;2023-04-06T04:49:37;101845.41;;;1.06;75.85
77725;BME280;66892;53.236;6.550;2023-04-06T04:52:03;101842.16;;;1.10;75.18
77725;BME280;66892;53.236;6.550;2023-04-06T04:54:29;101841.25;;;1.10;74.80
77725;BME280;66892;53.236;6.550;2023-04-06T04:56:55;101841.69;;;1.01;75.04
77725;BME280;66892;53.236;6.550;2023-04-06T04:59:21;101842.50;;;1.00;75.33
77725;BME280;66892;53.236;6.550;2023-04-06T05:01:47;101840.16;;;1.04;75.33
77725;BME280;66892;53.236;6.550;2023-04-06T05:04:15;101847.81;;;1.01;75.66
77725;BME280;66892;53.236;6.550;2023-04-06T05:06:41;101839.66;;;1.12;74.75
77725;BME280;66892;53.236;6.550;2023-04-06T05:09:07;101847.81;;;1.19;74.61
77725;BME280;66892;53.236;6.550;2023-04-06T05:11:33;101842.72;;;1.21;75.33
77725;BME280;66892;53.236;6.550;2023-04-06T05:13:59;101838.75;;;1.29;73.07
77725;BME280;66892;53.236;6.550;2023-04-06T05:16:25;101843.31;;;1.33;73.80
77725;BME280;66892;53.236;6.550;2023-04-06T05:18:51;101843.16;;;1.30;73.47
77725;BME280;66892;53.236;6.550;2023-04-06T05:21:20;101835.66;;;1.36;72.66
77725;BME280;66892;53.236;6.550;2023-04-06T05:23:46;101840.03;;;1.37;72.89
77725;BME280;66892;53.236;6.550;2023-04-06T05:26:12;101842.16;;;1.44;72.61
77725;BME280;66892;53.236;6.550;2023-04-06T05:28:38;101842.06;;;1.42;72.33
77725;BME280;66892;53.236;6.550;2023-04-06T05:31:04;101841.09;;;1.40;72.66
77725;BME280;66892;53.236;6.550;2023-04-06T05:33:30;101835.94;;;1.42;72.31
77725;BME280;66892;53.236;6.550;2023-04-06T05:35:56;101841.75;;;1.36;73.68
77725;BME280;66892;53.236;6.550;2023-04-06T05:38:24;101836.47;;;1.35;73.06
77725;BME280;66892;53.236;6.550;2023-04-06T05:40:50;101839.25;;;1.38;72.88
77725;BME280;66892;53.236;6.550;2023-04-06T05:43:16;101833.28;;;1.40;73.57
77725;BME280;66892;53.236;6.550;2023-04-06T05:45:44;101832.53;;;1.43;73.85
77725;BME280;66892;53.236;6.550;2023-04-06T05:48:10;101827.91;;;1.55;71.79
77725;BME280;66892;53.236;6.550;2023-04-06T05:50:36;101825.06;;;1.68;71.44
77725;BME280;66892;53.236;6.550;2023-04-06T05:53:02;101828.88;;;1.75;71.33
77725;BME280;66892;53.236;6.550;2023-04-06T05:55:29;101828.94;;;1.76;70.73
77725;BME280;66892;53.236;6.550;2023-04-06T05:57:55;101831.41;;;1.73;70.86
77725;BME280;66892;53.236;6.550;2023-04-06T06:00:21;101825.34;;;1.74;71.53
77725;BME280;66892;53.236;6.550;2023-04-06T06:02:47;101828.25;;;1.80;71.10
77725;BME280;66892;53.236;6.550;2023-04-06T06:05:13;101826.53;;;1.81;70.17
77725;BME280;66892;53.236;6.550;2023-04-06T06:07:39;101824.16;;;1.85;71.58
77725;BME280;66892;53.236;6.550;2023-04-06T06:10:07;101824.59;;;1.94;69.12
77725;BME280;66892;53.236;6.550;2023-04-06T06:12:34;101817.06;;;2.00;69.47
77725;BME280;66892;53.236;6.550;2023-04-06T06:15:00;101819.13;;;2.07;70.10
77725;BME280;66892;53.236;6.550;2023-04-06T06:17:26;101815.09;;;2.14;69.34
77725;BME280;66892;53.236;6.550;2023-04-06T06:19:52;101814.06;;;2.10;70.30
77725;BME280;66892;53.236;6.550;2023-04-06T06:22:19;101819.41;;;2.13;70.85
77725;BME280;66892;53.236;6.550;2023-04-06T06:24:45;101810.97;;;2.19;68.78
77725;BME280;66892;53.236;6.550;2023-04-06T06:27:11;101818.19;;;2.25;69.40
77725;BME280;66892;53.236;6.550;2023-04-06T06:29:38;101817.50;;;2.29;70.05
77725;BME280;66892;53.236;6.550;2023-04-06T06:32:04;101813.31;;;2.32;69.91
77725;BME280;66892;53.236;6.550;2023-04-06T06:34:31;101814.75;;;2.45;68.07
77725;BME280;66892;53.236;6.550;2023-04-06T06:36:57;101813.38;;;2.53;68.33
77725;BME280;66892;53.236;6.550;2023-04-06T06:39:23;101810.41;;;2.64;67.01
77725;BME280;66892;53.236;6.550;2023-04-06T06:41:49;101811.78;;;2.76;66.41
77725;BME280;66892;53.236;6.550;2023-04-06T06:44:15;101812.72;;;2.78;67.51
77725;BME280;66892;53.236;6.550;2023-04-06T06:46:43;101814.03;;;2.87;67.11
77725;BME280;66892;53.236;6.550;2023-04-06T06:49:09;101817.22;;;3.01;66.21
77725;BME280;66892;53.236;6.550;2023-04-06T06:51:37;101814.13;;;3.30;64.97
77725;BME280;66892;53.236;6.550;2023-04-06T06:54:04;101810.53;;;3.49;63.43
77725;BME280;66892;53.236;6.550;2023-04-06T06:56:30;101808.47;;;4.07;63.41
77725;BME280;66892;53.236;6.550;2023-04-06T06:58:56;101803.59;;;4.63;59.73
77725;BME280;66892;53.236;6.550;2023-04-06T07:01:22;101809.34;;;5.27;59.46
77725;BME280;66892;53.236;6.550;2023-04-06T07:03:49;101800.59;;;5.54;58.04
77725;BME280;66892;53.236;6.550;2023-04-06T07:06:15;101805.63;;;6.01;56.59
77725;BME280;66892;53.236;6.550;2023-04-06T07:08:41;101796.13;;;6.34;55.49
77725;BME280;66892;53.236;6.550;2023-04-06T07:11:07;101797.59;;;6.55;54.95
77725;BME280;66892;53.236;6.550;2023-04-06T07:13:33;101802.78;;;6.52;54.94
77725;BME280;66892;53.236;6.550;2023-04-06T07:15:59;101804.53;;;6.53;54.05
77725;BME280;66892;53.236;6.550;2023-04-06T07:18:25;101800.31;;;6.58;54.04
77725;BME280;66892;53.236;6.550;2023-04-06T07:20:53;101799.50;;;6.60;54.62
77725;BME280;66892;53.236;6.550;2023-04-06T07:23:19;101793.31;;;6.89;54.14
77725;BME280;66892;53.236;6.550;2023-04-06T07:25:45;101796.06;;;7.28;52.21
77725;BME280;66892;53.236;6.550;2023-04-06T07:28:11;101790.06;;;7.70;51.63
77725;BME280;66892;53.236;6.550;2023-04-06T07:30:37;101786.56;;;7.71;49.27
77725;BME280;66892;53.236;6.550;2023-04-06T07:33:03;101788.22;;;8.05;49.58
77725;BME280;66892;53.236;6.550;2023-04-06T07:35:31;101777.75;;;8.48;48.34
77725;BME280;66892;53.236;6.550;2023-04-06T07:37:58;101774.19;;;8.91;48.08
77725;BME280;66892;53.236;6.550;2023-04-06T07:40:24;101773.94;;;8.77;46.37
77725;BME280;66892;53.236;6.550;2023-04-06T07:42:51;101780.94;;;9.25;46.04
77725;BME280;66892;53.236;6.550;2023-04-06T07:45:18;101771.69;;;9.51;45.35
77725;BME280;66892;53.236;6.550;2023-04-06T07:47:44;101775.50;;;9.68;44.71
77725;BME280;66892;53.236;6.550;2023-04-06T07:50:10;101769.09;;;10.11;44.12
77725;BME280;66892;53.236;6.550;2023-04-06T07:52:36;101767.22;;;10.04;43.11
77725;BME280;66892;53.236;6.550;2023-04-06T07:55:04;101762.91;;;10.12;43.62
77725;BME280;66892;53.236;6.550;2023-04-06T07:57:30;101765.84;;;10.32;44.00
77725;BME280;66892;53.236;6.550;2023-04-06T07:59:56;101764.94;;;10.31;42.86
77725;BME280;66892;53.236;6.550;2023-04-06T08:02:22;101760.97;;;10.65;43.60
77725;BME280;66892;53.236;6.550;2023-04-06T08:04:48;101753.41;;;10.23;43.98
77725;BME280;66892;53.236;6.550;2023-04-06T08:07:14;101752.84;;;9.28;46.47
77725;BME280;66892;53.236;6.550;2023-04-06T08:09:40;101752.44;;;8.56;48.46
77725;BME280;66892;53.236;6.550;2023-04-06T08:12:08;101759.00;;;7.94;50.00
77725;BME280;66892;53.236;6.550;2023-04-06T08:14:34;101764.78;;;7.76;50.70
77725;BME280;66892;53.236;6.550;2023-04-06T08:17:00;101763.97;;;7.80;51.25
77725;BME280;66892;53.236;6.550;2023-04-06T08:19:26;101768.59;;;7.90;51.74
77725;BME280;66892;53.236;6.550;2023-04-06T08:21:52;101764.16;;;7.88;51.49
77725;BME280;66892;53.236;6.550;2023-04-06T08:24:19;101763.50;;;8.00;51.70
77725;BME280;66892;53.236;6.550;2023-04-06T08:26:45;101766.91;;;8.78;48.36
77725;BME280;66892;53.236;6.550;2023-04-06T08:29:12;101757.63;;;10.11;45.63
77725;BME280;66892;53.236;6.550;2023-04-06T08:31:38;101747.50;;;11.33;42.52
77725;BME280;66892;53.236;6.550;2023-04-06T08:34:04;101750.59;;;11.95;41.53
77725;BME280;66892;53.236;6.550;2023-04-06T08:36:31;101756.13;;;12.46;39.56
77725;BME280;66892;53.236;6.550;2023-04-06T08:38:58;101751.00;;;13.10;38.84
77725;BME280;66892;53.236;6.550;2023-04-06T08:41:24;101747.47;;;13.17;37.32
77725;BME280;66892;53.236;6.550;2023-04-06T08:43:56;101750.13;;;13.18;37.49
77725;BME280;66892;53.236;6.550;2023-04-06T08:46:24;101741.28;;;13.26;37.29
77725;BME280;66892;53.236;6.550;2023-04-06T08:48:55;101738.53;;;13.88;36.37
77725;BME280;66892;53.236;6.550;2023-04-06T08:51:23;101746.50;;;14.00;35.59
77725;BME280;66892;53.236;6.550;2023-04-06T08:53:49;101746.34;;;14.39;34.24
77725;BME280;66892;53.236;6.550;2023-04-06T08:56:15;101740.94;;;14.63;32.82
77725;BME280;66892;53.236;6.550;2023-04-06T08:58:42;101743.50;;;14.75;32.58
77725;BME280;66892;53.236;6.550;2023-04-06T09:01:11;101742.84;;;14.28;34.18
77725;BME280;66892;53.236;6.550;2023-04-06T09:03:40;101741.09;;;14.18;33.95
77725;BME280;66892;53.236;6.550;2023-04-06T09:06:07;101739.34;;;14.15;32.99
77725;BME280;66892;53.236;6.550;2023-04-06T09:08:33;101734.03;;;14.06;32.48
77725;BME280;66892;53.236;6.550;2023-04-06T09:11:00;101736.63;;;14.23;32.38
77725;BME280;66892;53.236;6.550;2023-04-06T09:13:26;101737.47;;;14.33;32.66
77725;BME280;66892;53.236;6.550;2023-04-06T09:15:59;101736.66;;;14.35;32.06
77725;BME280;66892;53.236;6.550;2023-04-06T09:18:29;101738.25;;;14.62;32.73
77725;BME280;66892;53.236;6.550;2023-04-06T09:21:01;101729.59;;;14.11;34.54
77725;BME280;66892;53.236;6.550;2023-04-06T09:23:27;101728.34;;;14.84;33.02
77725;BME280;66892;53.236;6.550;2023-04-06T09:26:04;101723.56;;;15.29;32.54
77725;BME280;66892;53.236;6.550;2023-04-06T09:28:41;101724.22;;;15.57;31.42
77725;BME280;66892;53.236;6.550;2023-04-06T09:31:07;101713.22;;;14.92;32.42
77725;BME280;66892;53.236;6.550;2023-04-06T09:33:37;101710.03;;;14.20;33.78
77725;BME280;66892;53.236;6.550;2023-04-06T09:36:06;101724.44;;;13.24;34.59
77725;BME280;66892;53.236;6.550;2023-04-06T09:38:32;101715.56;;;12.96;35.94
77725;BME280;66892;53.236;6.550;2023-04-06T09:40:58;101722.63;;;13.07;36.39
77725;BME280;66892;53.236;6.550;2023-04-06T09:43:24;101710.25;;;12.96;36.49
77725;BME280;66892;53.236;6.550;2023-04-06T09:45:51;101707.59;;;13.06;37.53
77725;BME280;66892;53.236;6.550;2023-04-06T09:48:19;101705.72;;;12.39;35.16
77725;BME280;66892;53.236;6.550;2023-04-06T09:50:46;101703.88;;;12.17;36.35
77725;BME280;66892;53.236;6.550;2023-04-06T09:53:14;101694.13;;;12.17;39.62
77725;BME280;66892;53.236;6.550;2023-04-06T09:55:43;101702.97;;;12.11;36.89
77725;BME280;66892;53.236;6.550;2023-04-06T09:58:10;101690.63;;;12.27;39.86
77725;BME280;66892;53.236;6.550;2023-04-06T10:00:43;101686.16;;;12.14;38.30
77725;BME280;66892;53.236;6.550;2023-04-06T10:03:17;101689.75;;;12.27;38.59
77725;BME280;66892;53.236;6.550;2023-04-06T10:05:51;101680.09;;;12.44;39.31
77725;BME280;66892;53.236;6.550;2023-04-06T10:08:22;101680.09;;;12.65;36.46
77725;BME280;66892;53.236;6.550;2023-04-06T10:10:50;101677.47;;;12.57;38.01
77725;BME280;66892;53.236;6.550;2023-04-06T10:13:16;101685.47;;;12.86;37.53
77725;BME280;66892;53.236;6.550;2023-04-06T10:15:44;101688.94;;;12.41;37.26
77725;BME280;66892;53.236;6.550;2023-04-06T10:18:11;101682.75;;;12.62;37.08
77725;BME280;66892;53.236;6.550;2023-04-06T10:20:41;101680.19;;;13.12;36.36
77725;BME280;66892;53.236;6.550;2023-04-06T10:23:08;101682.84;;;13.27;36.03
77725;BME280;66892;53.236;6.550;2023-04-06T10:25:36;101684.56;;;13.64;35.54
77725;BME280;66892;53.236;6.550;2023-04-06T10:28:05;101676.63;;;13.33;35.78
77725;BME280;66892;53.236;6.550;2023-04-06T10:30:32;101680.16;;;13.47;37.02
77725;BME280;66892;53.236;6.550;2023-04-06T10:32:59;101669.50;;;13.45;37.00
77725;BME280;66892;53.236;6.550;2023-04-06T10:35:36;101672.06;;;13.89;35.60
77725;BME280;66892;53.236;6.550;2023-04-06T10:38:03;101673.66;;;14.31;34.50
77725;BME280;66892;53.236;6.550;2023-04-06T10:40:30;101664.72;;;15.55;34.32
77725;BME280;66892;53.236;6.550;2023-04-06T10:43:09;101670.34;;;15.22;32.59
77725;BME280;66892;53.236;6.550;2023-04-06T10:45:35;101662.91;;;15.59;32.60
77725;BME280;66892;53.236;6.550;2023-04-06T10:48:12;101663.47;;;15.87;32.19
77725;BME280;66892;53.236;6.550;2023-04-06T10:50:39;101652.88;;;14.88;33.59
77725;BME280;66892;53.236;6.550;2023-04-06T10:53:05;101655.81;;;14.53;32.59
77725;BME280;66892;53.236;6.550;2023-04-06T10:55:32;101648.78;;;14.40;33.83
77725;BME280;66892;53.236;6.550;2023-04-06T10:57:58;101656.81;;;14.26;33.61
77725;BME280;66892;53.236;6.550;2023-04-06T11:00:25;101647.94;;;14.38;35.21
77725;BME280;66892;53.236;6.550;2023-04-06T11:02:58;101644.34;;;14.45;34.55
77725;BME280;66892;53.236;6.550;2023-04-06T11:05:25;101649.75;;;14.22;35.54
77725;BME280;66892;53.236;6.550;2023-04-06T11:07:51;101641.81;;;14.14;33.40
77725;BME280;66892;53.236;6.550;2023-04-06T11:10:21;101649.72;;;14.28;33.08
77725;BME280;66892;53.236;6.550;2023-04-06T11:12:52;101646.06;;;14.49;33.35
77725;BME280;66892;53.236;6.550;2023-04-06T11:15:19;101641.44;;;14.75;32.42
77725;BME280;66892;53.236;6.550;2023-04-06T11:17:46;101644.50;;;15.28;30.81
77725;BME280;66892;53.236;6.550;2023-04-06T11:20:12;101643.00;;;15.89;31.09
77725;BME280;66892;53.236;6.550;2023-04-06T11:22:48;101637.06;;;16.34;30.00
77725;BME280;66892;53.236;6.550;2023-04-06T11:25:14;101632.56;;;16.36;30.75
77725;BME280;66892;53.236;6.550;2023-04-06T11:27:43;101629.56;;;15.96;30.58
77725;BME280;66892;53.236;6.550;2023-04-06T11:30:10;101629.91;;;15.69;30.93
77725;BME280;66892;53.236;6.550;2023-04-06T11:32:39;101634.56;;;15.46;30.76
77725;BME280;66892;53.236;6.550;2023-04-06T11:35:10;101641.38;;;14.84;31.92
77725;BME280;66892;53.236;6.550;2023-04-06T11:37:37;101639.47;;;15.01;30.89
77725;BME280;66892;53.236;6.550;2023-04-06T11:40:04;101627.41;;;15.55;30.61
77725;BME280;66892;53.236;6.550;2023-04-06T11:42:34;101632.13;;;16.05;29.62
77725;BME280;66892;53.236;6.550;2023-04-06T11:45:00;101632.53;;;16.41;30.30
77725;BME280;66892;53.236;6.550;2023-04-06T11:47:30;101621.63;;;16.56;28.58
77725;BME280;66892;53.236;6.550;2023-04-06T11:49:56;101614.28;;;16.70;28.35
77725;BME280;66892;53.236;6.550;2023-04-06T11:52:32;101621.75;;;16.45;29.04
77725;BME280;66892;53.236;6.550;2023-04-06T11:54:58;101618.09;;;16.55;28.66
77725;BME280;66892;53.236;6.550;2023-04-06T11:57:24;101611.53;;;16.15;29.73
77725;BME280;66892;53.236;6.550;2023-04-06T11:59:51;101611.84;;;15.92;30.08
77725;BME280;66892;53.236;6.550;2023-04-06T12:02:17;101615.44;;;15.88;30.12
77725;BME280;66892;53.236;6.550;2023-04-06T12:04:43;101611.72;;;16.00;30.01
77725;BME280;66892;53.236;6.550;2023-04-06T12:07:09;101619.91;;;15.88;29.50
77725;BME280;66892;53.236;6.550;2023-04-06T12:09:37;101613.72;;;15.86;30.20
77725;BME280;66892;53.236;6.550;2023-04-06T12:12:03;101620.94;;;15.76;30.75
77725;BME280;66892;53.236;6.550;2023-04-06T12:14:29;101616.66;;;15.63;31.21
77725;BME280;66892;53.236;6.550;2023-04-06T12:16:56;101616.81;;;15.51;31.22
77725;BME280;66892;53.236;6.550;2023-04-06T12:19:23;101611.47;;;15.48;31.55
77725;BME280;66892;53.236;6.550;2023-04-06T12:21:51;101614.28;;;15.32;31.12
77725;BME280;66892;53.236;6.550;2023-04-06T12:24:17;101605.28;;;15.43;31.38
77725;BME280;66892;53.236;6.550;2023-04-06T12:26:45;101608.97;;;15.29;32.13
77725;BME280;66892;53.236;6.550;2023-04-06T12:29:11;101594.03;;;15.18;32.07
77725;BME280;66892;53.236;6.550;2023-04-06T12:31:39;101601.34;;;14.93;32.08
77725;BME280;66892;53.236;6.550;2023-04-06T12:34:06;101604.16;;;14.80;32.30
77725;BME280;66892;53.236;6.550;2023-04-06T12:36:33;101607.81;;;14.65;32.67
77725;BME280;66892;53.236;6.550;2023-04-06T12:39:00;101605.22;;;14.51;33.76
77725;BME280;66892;53.236;6.550;2023-04-06T12:41:27;101604.44;;;14.39;32.01
77725;BME280;66892;53.236;6.550;2023-04-06T12:43:55;101603.66;;;14.21;32.01
77725;BME280;66892;53.236;6.550;2023-04-06T12:46:21;101602.78;;;14.16;32.26
77725;BME280;66892;53.236;6.550;2023-04-06T12:48:47;101611.72;;;14.03;32.24
77725;BME280;66892;53.236;6.550;2023-04-06T12:51:13;101606.38;;;14.06;32.19
77725;BME280;66892;53.236;6.550;2023-04-06T12:53:40;101601.09;;;14.05;33.24
77725;BME280;66892;53.236;6.550;2023-04-06T12:56:11;101599.19;;;14.23;33.86